sensor_id;sensor_type;location;lat;lon;timestamp;temperature;humidity
20035;DHT22;10178;48.034;9.800;2022-08-06T00:01:40;25.70;99.90
20035;DHT22;10178;48.034;9.800;2022-08-06T00:04:05;25.70;99.90
20035;DHT22;10178;48.034;9.800;2022-08-06T00:09:33;25.70;99.90
20035;DHT22;10178;48.034;9.800;2022-08-06T00:12:00;25.70;99.90
20035;DHT22;10178;48.034;9.800;2022-08-06T00:14:27;25.70;99.90
20035;DHT22;10178;48.034;9.800;2022-08-06T00:17:27;25.60;99.90
20035;DHT22;10178;48.034;9.800;2022-08-06T00:19:52;25.60;99.90
20035;DHT22;10178;48.034;9.800;2022-08-06T00:22:18;25.60;99.90
20035;DHT22;10178;48.034;9.800;2022-08-06T00:24:44;25.50;99.90
20035;DHT22;10178;48.034;9.800;2022-08-06T00:27:09;25.50;99.90
20035;DHT22;10178;48.034;9.800;2022-08-06T00:29:35;25.50;99.90
20035;DHT22;10178;48.034;9.800;2022-08-06T00:32:00;25.50;99.90
20035;DHT22;10178;48.034;9.800;2022-08-06T00:34:26;25.50;99.90
20035;DHT22;10178;48.034;9.800;2022-08-06T00:36:52;25.50;99.90
20035;DHT22;10178;48.034;9.800;2022-08-06T00:39:17;25.50;99.90
20035;DHT22;10178;48.034;9.800;2022-08-06T00:41:43;25.50;99.90
20035;DHT22;10178;48.034;9.800;2022-08-06T00:44:09;25.50;99.90
20035;DHT22;10178;48.034;9.800;2022-08-06T00:46:35;25.50;99.90
20035;DHT22;10178;48.034;9.800;2022-08-06T00:49:00;25.50;99.90
20035;DHT22;10178;48.034;9.800;2022-08-06T00:51:26;25.40;99.90
20035;DHT22;10178;48.034;9.800;2022-08-06T00:53:52;25.40;99.90
20035;DHT22;10178;48.034;9.800;2022-08-06T00:56:18;25.40;99.90
20035;DHT22;10178;48.034;9.800;2022-08-06T00:58:44;25.20;99.90
20035;DHT22;10178;48.034;9.800;2022-08-06T01:01:10;25.20;99.90
20035;DHT22;10178;48.034;9.800;2022-08-06T01:03:36;25.20;99.90
20035;DHT22;10178;48.034;9.800;2022-08-06T01:06:03;25.30;99.90
20035;DHT22;10178;48.034;9.800;2022-08-06T01:08:29;25.30;99.90
20035;DHT22;10178;48.034;9.800;2022-08-06T01:10:54;25.30;99.90
20035;DHT22;10178;48.034;9.800;2022-08-06T01:13:20;25.30;99.90
20035;DHT22;10178;48.034;9.800;2022-08-06T01:16:11;25.30;99.90
20035;DHT22;10178;48.034;9.800;2022-08-06T01:19:40;25.20;99.90
20035;DHT22;10178;48.034;9.800;2022-08-06T01:21:56;25.20;99.90
20035;DHT22;10178;48.034;9.800;2022-08-06T01:30:18;25.20;99.90
20035;DHT22;10178;48.034;9.800;2022-08-06T01:33:13;25.20;99.90
20035;DHT22;10178;48.034;9.800;2022-08-06T01:35:43;25.10;99.90
20035;DHT22;10178;48.034;9.800;2022-08-06T01:38:22;25.10;99.90
20035;DHT22;10178;48.034;9.800;2022-08-06T01:40:51;24.90;99.90
20035;DHT22;10178;48.034;9.800;2022-08-06T01:43:19;24.90;99.90
20035;DHT22;10178;48.034;9.800;2022-08-06T01:45:46;24.90;99.90
20035;DHT22;10178;48.034;9.800;2022-08-06T01:48:17;25.00;99.90
20035;DHT22;10178;48.034;9.800;2022-08-06T01:50:48;25.00;99.90
20035;DHT22;10178;48.034;9.800;2022-08-06T01:53:17;25.00;99.90
20035;DHT22;10178;48.034;9.800;2022-08-06T01:55:47;25.00;99.90
20035;DHT22;10178;48.034;9.800;2022-08-06T01:58:17;25.00;99.90
20035;DHT22;10178;48.034;9.800;2022-08-06T02:00:46;25.10;99.90
20035;DHT22;10178;48.034;9.800;2022-08-06T02:03:24;25.00;99.90
20035;DHT22;10178;48.034;9.800;2022-08-06T02:05:53;25.00;99.90
20035;DHT22;10178;48.034;9.800;2022-08-06T02:08:21;25.00;99.90
20035;DHT22;10178;48.034;9.800;2022-08-06T02:10:49;24.90;99.90
20035;DHT22;10178;48.034;9.800;2022-08-06T02:13:17;24.90;99.90
20035;DHT22;10178;48.034;9.800;2022-08-06T02:15:45;24.90;99.90
20035;DHT22;10178;48.034;9.800;2022-08-06T02:18:13;24.90;99.90
20035;DHT22;10178;48.034;9.800;2022-08-06T02:20:45;24.90;99.90
20035;DHT22;10178;48.034;9.800;2022-08-06T02:23:17;24.90;99.90
20035;DHT22;10178;48.034;9.800;2022-08-06T02:25:45;24.90;99.90
20035;DHT22;10178;48.034;9.800;2022-08-06T02:28:14;24.80;99.90
20035;DHT22;10178;48.034;9.800;2022-08-06T02:30:46;24.60;99.90
20035;DHT22;10178;48.034;9.800;2022-08-06T02:33:12;24.40;99.90
20035;DHT22;10178;48.034;9.800;2022-08-06T02:35:51;24.30;99.90
20035;DHT22;10178;48.034;9.800;2022-08-06T02:38:41;24.20;99.90
20035;DHT22;10178;48.034;9.800;2022-08-06T02:43:58;24.20;99.90
20035;DHT22;10178;48.034;9.800;2022-08-06T02:46:34;24.20;99.90
20035;DHT22;10178;48.034;9.800;2022-08-06T02:49:19;24.20;99.90
20035;DHT22;10178;48.034;9.800;2022-08-06T02:51:52;24.20;99.90
20035;DHT22;10178;48.034;9.800;2022-08-06T02:54:24;24.30;99.90
20035;DHT22;10178;48.034;9.800;2022-08-06T02:56:59;24.30;99.90
20035;DHT22;10178;48.034;9.800;2022-08-06T02:59:28;24.30;99.90
20035;DHT22;10178;48.034;9.800;2022-08-06T03:01:59;24.20;99.90
20035;DHT22;10178;48.034;9.800;2022-08-06T03:04:26;24.20;99.90
20035;DHT22;10178;48.034;9.800;2022-08-06T03:06:53;24.20;99.90
20035;DHT22;10178;48.034;9.800;2022-08-06T03:09:20;24.10;99.90
20035;DHT22;10178;48.034;9.800;2022-08-06T03:11:47;24.10;99.90
20035;DHT22;10178;48.034;9.800;2022-08-06T03:14:16;24.10;99.90
20035;DHT22;10178;48.034;9.800;2022-08-06T03:16:42;24.00;99.90
20035;DHT22;10178;48.034;9.800;2022-08-06T03:19:10;24.00;99.90
20035;DHT22;10178;48.034;9.800;2022-08-06T03:21:37;24.00;99.90
20035;DHT22;10178;48.034;9.800;2022-08-06T03:24:04;24.00;99.90
20035;DHT22;10178;48.034;9.800;2022-08-06T03:26:32;24.00;99.90
20035;DHT22;10178;48.034;9.800;2022-08-06T03:29:00;24.00;99.90
20035;DHT22;10178;48.034;9.800;2022-08-06T03:31:27;24.00;99.90
20035;DHT22;10178;48.034;9.800;2022-08-06T03:33:54;24.00;99.90
20035;DHT22;10178;48.034;9.800;2022-08-06T03:36:20;24.00;99.90
20035;DHT22;10178;48.034;9.800;2022-08-06T03:39:00;23.90;99.90
20035;DHT22;10178;48.034;9.800;2022-08-06T03:41:29;23.90;99.90
20035;DHT22;10178;48.034;9.800;2022-08-06T03:43:55;23.90;99.90
20035;DHT22;10178;48.034;9.800;2022-08-06T03:46:46;23.90;99.90
20035;DHT22;10178;48.034;9.800;2022-08-06T03:49:41;23.90;99.90
20035;DHT22;10178;48.034;9.800;2022-08-06T03:52:10;23.90;99.90
20035;DHT22;10178;48.034;9.800;2022-08-06T03:54:42;23.80;99.90
20035;DHT22;10178;48.034;9.800;2022-08-06T03:57:12;23.80;99.90
20035;DHT22;10178;48.034;9.800;2022-08-06T03:59:44;23.70;99.90
20035;DHT22;10178;48.034;9.800;2022-08-06T04:02:11;23.70;99.90
20035;DHT22;10178;48.034;9.800;2022-08-06T04:04:38;23.70;99.90
20035;DHT22;10178;48.034;9.800;2022-08-06T04:07:05;23.70;99.90
20035;DHT22;10178;48.034;9.800;2022-08-06T04:09:32;23.60;99.90
20035;DHT22;10178;48.034;9.800;2022-08-06T04:11:59;23.60;99.90
20035;DHT22;10178;48.034;9.800;2022-08-06T04:14:24;23.60;99.90
20035;DHT22;10178;48.034;9.800;2022-08-06T04:16:52;23.60;99.90
20035;DHT22;10178;48.034;9.800;2022-08-06T04:19:19;23.50;99.90
20035;DHT22;10178;48.034;9.800;2022-08-06T04:21:46;23.50;99.90
20035;DHT22;10178;48.034;9.800;2022-08-06T04:24:12;23.50;99.90
20035;DHT22;10178;48.034;9.800;2022-08-06T04:26:39;23.50;99.90
20035;DHT22;10178;48.034;9.800;2022-08-06T04:29:07;23.50;99.90
20035;DHT22;10178;48.034;9.800;2022-08-06T04:31:34;23.50;99.90
20035;DHT22;10178;48.034;9.800;2022-08-06T04:34:02;23.50;99.90
20035;DHT22;10178;48.034;9.800;2022-08-06T04:36:29;23.50;99.90
20035;DHT22;10178;48.034;9.800;2022-08-06T04:38:55;23.50;99.90
20035;DHT22;10178;48.034;9.800;2022-08-06T04:41:22;23.40;99.90
20035;DHT22;10178;48.034;9.800;2022-08-06T04:43:48;23.40;99.90
20035;DHT22;10178;48.034;9.800;2022-08-06T04:46:14;23.40;99.90
20035;DHT22;10178;48.034;9.800;2022-08-06T04:48:40;23.40;99.90
20035;DHT22;10178;48.034;9.800;2022-08-06T04:51:06;23.40;99.90
20035;DHT22;10178;48.034;9.800;2022-08-06T04:53:37;23.40;99.90
20035;DHT22;10178;48.034;9.800;2022-08-06T04:56:04;23.40;99.90
20035;DHT22;10178;48.034;9.800;2022-08-06T04:58:30;23.30;99.90
20035;DHT22;10178;48.034;9.800;2022-08-06T05:00:56;23.30;99.90
20035;DHT22;10178;48.034;9.800;2022-08-06T05:03:21;23.30;99.90
20035;DHT22;10178;48.034;9.800;2022-08-06T05:05:54;23.30;99.90
20035;DHT22;10178;48.034;9.800;2022-08-06T05:08:22;23.30;99.90
20035;DHT22;10178;48.034;9.800;2022-08-06T05:10:56;23.20;99.90
20035;DHT22;10178;48.034;9.800;2022-08-06T05:13:28;23.20;99.90
20035;DHT22;10178;48.034;9.800;2022-08-06T05:15:57;23.30;99.90
20035;DHT22;10178;48.034;9.800;2022-08-06T05:18:33;23.20;99.90
20035;DHT22;10178;48.034;9.800;2022-08-06T05:21:00;23.20;99.90
20035;DHT22;10178;48.034;9.800;2022-08-06T05:23:33;23.20;99.90
20035;DHT22;10178;48.034;9.800;2022-08-06T05:25:59;23.20;99.90
20035;DHT22;10178;48.034;9.800;2022-08-06T05:28:25;23.20;99.90
20035;DHT22;10178;48.034;9.800;2022-08-06T05:30:52;23.20;99.90
20035;DHT22;10178;48.034;9.800;2022-08-06T05:33:29;23.20;99.90
20035;DHT22;10178;48.034;9.800;2022-08-06T05:35:57;23.10;99.90
20035;DHT22;10178;48.034;9.800;2022-08-06T05:38:23;23.10;99.90
20035;DHT22;10178;48.034;9.800;2022-08-06T05:40:54;22.90;99.90
20035;DHT22;10178;48.034;9.800;2022-08-06T05:43:21;22.90;99.90
20035;DHT22;10178;48.034;9.800;2022-08-06T05:45:49;22.80;99.90
20035;DHT22;10178;48.034;9.800;2022-08-06T05:48:17;22.90;99.90
20035;DHT22;10178;48.034;9.800;2022-08-06T05:50:49;22.90;99.90
20035;DHT22;10178;48.034;9.800;2022-08-06T05:53:28;22.90;99.90
20035;DHT22;10178;48.034;9.800;2022-08-06T05:55:59;22.80;99.90
20035;DHT22;10178;48.034;9.800;2022-08-06T05:58:44;22.80;99.90
20035;DHT22;10178;48.034;9.800;2022-08-06T06:01:12;22.70;99.90
20035;DHT22;10178;48.034;9.800;2022-08-06T06:03:40;22.80;99.90
20035;DHT22;10178;48.034;9.800;2022-08-06T06:06:08;22.80;99.90
20035;DHT22;10178;48.034;9.800;2022-08-06T06:08:35;22.70;99.90
20035;DHT22;10178;48.034;9.800;2022-08-06T06:11:03;22.80;99.90
20035;DHT22;10178;48.034;9.800;2022-08-06T06:13:29;22.70;99.90
20035;DHT22;10178;48.034;9.800;2022-08-06T06:16:13;22.60;99.90
20035;DHT22;10178;48.034;9.800;2022-08-06T06:22:21;22.60;99.90
20035;DHT22;10178;48.034;9.800;2022-08-06T06:25:42;22.50;99.90
20035;DHT22;10178;48.034;9.800;2022-08-06T06:28:16;22.20;99.90
20035;DHT22;10178;48.034;9.800;2022-08-06T06:33:24;22.10;99.90
20035;DHT22;10178;48.034;9.800;2022-08-06T06:35:56;21.90;99.90
20035;DHT22;10178;48.034;9.800;2022-08-06T06:41:32;22.10;99.90
20035;DHT22;10178;48.034;9.800;2022-08-06T06:46:39;22.40;99.90
20035;DHT22;10178;48.034;9.800;2022-08-06T06:49:22;22.10;99.90
20035;DHT22;10178;48.034;9.800;2022-08-06T06:52:04;21.90;99.90
20035;DHT22;10178;48.034;9.800;2022-08-06T06:54:39;22.10;99.90
20035;DHT22;10178;48.034;9.800;2022-08-06T06:57:10;22.20;99.90
20035;DHT22;10178;48.034;9.800;2022-08-06T06:59:41;22.20;99.90
20035;DHT22;10178;48.034;9.800;2022-08-06T07:02:19;22.30;99.90
20035;DHT22;10178;48.034;9.800;2022-08-06T07:04:47;22.40;99.90
20035;DHT22;10178;48.034;9.800;2022-08-06T07:07:13;22.40;99.90
20035;DHT22;10178;48.034;9.800;2022-08-06T07:09:40;22.40;99.90
20035;DHT22;10178;48.034;9.800;2022-08-06T07:12:07;22.40;99.90
20035;DHT22;10178;48.034;9.800;2022-08-06T07:14:35;22.40;99.90
20035;DHT22;10178;48.034;9.800;2022-08-06T07:17:04;22.40;99.90
20035;DHT22;10178;48.034;9.800;2022-08-06T07:19:31;22.40;99.90
20035;DHT22;10178;48.034;9.800;2022-08-06T07:21:58;22.40;99.90
20035;DHT22;10178;48.034;9.800;2022-08-06T07:24:25;22.40;99.90
20035;DHT22;10178;48.034;9.800;2022-08-06T07:26:54;22.40;99.90
20035;DHT22;10178;48.034;9.800;2022-08-06T07:29:21;22.40;99.90
20035;DHT22;10178;48.034;9.800;2022-08-06T07:31:47;22.30;99.90
20035;DHT22;10178;48.034;9.800;2022-08-06T07:34:14;22.30;99.90
20035;DHT22;10178;48.034;9.800;2022-08-06T07:36:48;22.20;99.90
20035;DHT22;10178;48.034;9.800;2022-08-06T07:39:21;22.20;99.90
20035;DHT22;10178;48.034;9.800;2022-08-06T07:41:49;22.20;99.90
20035;DHT22;10178;48.034;9.800;2022-08-06T07:44:16;22.30;99.90
20035;DHT22;10178;48.034;9.800;2022-08-06T07:46:44;22.10;99.90
20035;DHT22;10178;48.034;9.800;2022-08-06T07:49:14;21.10;99.90
20035;DHT22;10178;48.034;9.800;2022-08-06T07:51:43;20.90;99.90
20035;DHT22;10178;48.034;9.800;2022-08-06T07:54:10;21.00;99.90
20035;DHT22;10178;48.034;9.800;2022-08-06T07:56:40;21.10;99.90
20035;DHT22;10178;48.034;9.800;2022-08-06T07:59:07;21.30;99.90
20035;DHT22;10178;48.034;9.800;2022-08-06T08:01:34;21.50;99.90
20035;DHT22;10178;48.034;9.800;2022-08-06T08:04:00;21.60;99.90
20035;DHT22;10178;48.034;9.800;2022-08-06T08:06:45;21.70;99.90
20035;DHT22;10178;48.034;9.800;2022-08-06T08:09:17;21.80;99.90
20035;DHT22;10178;48.034;9.800;2022-08-06T08:11:45;21.70;99.90
20035;DHT22;10178;48.034;9.800;2022-08-06T08:14:13;21.80;99.90
20035;DHT22;10178;48.034;9.800;2022-08-06T08:17:03;21.80;99.90
20035;DHT22;10178;48.034;9.800;2022-08-06T08:19:33;21.80;99.90
20035;DHT22;10178;48.034;9.800;2022-08-06T08:22:03;21.80;99.90
20035;DHT22;10178;48.034;9.800;2022-08-06T08:24:31;21.20;99.90
20035;DHT22;10178;48.034;9.800;2022-08-06T08:26:58;21.20;99.90
20035;DHT22;10178;48.034;9.800;2022-08-06T08:29:24;21.40;99.90
20035;DHT22;10178;48.034;9.800;2022-08-06T08:31:50;21.50;99.90
20035;DHT22;10178;48.034;9.800;2022-08-06T08:34:16;21.60;99.90
20035;DHT22;10178;48.034;9.800;2022-08-06T08:36:41;21.70;99.90
20035;DHT22;10178;48.034;9.800;2022-08-06T08:39:07;21.70;99.90
20035;DHT22;10178;48.034;9.800;2022-08-06T08:41:41;21.70;99.90
20035;DHT22;10178;48.034;9.800;2022-08-06T08:44:09;21.70;99.90
20035;DHT22;10178;48.034;9.800;2022-08-06T08:46:44;21.70;99.90
20035;DHT22;10178;48.034;9.800;2022-08-06T08:49:19;21.70;99.90
20035;DHT22;10178;48.034;9.800;2022-08-06T08:51:46;21.70;99.90
20035;DHT22;10178;48.034;9.800;2022-08-06T08:54:17;21.60;99.90
20035;DHT22;10178;48.034;9.800;2022-08-06T08:56:48;21.70;99.90
20035;DHT22;10178;48.034;9.800;2022-08-06T08:59:15;21.70;99.90
20035;DHT22;10178;48.034;9.800;2022-08-06T09:01:40;21.70;99.90
20035;DHT22;10178;48.034;9.800;2022-08-06T09:04:07;21.70;99.90
20035;DHT22;10178;48.034;9.800;2022-08-06T09:06:34;21.70;99.90
20035;DHT22;10178;48.034;9.800;2022-08-06T09:09:02;21.70;99.90
20035;DHT22;10178;48.034;9.800;2022-08-06T09:11:33;21.70;99.90
20035;DHT22;10178;48.034;9.800;2022-08-06T09:14:04;21.60;99.90
20035;DHT22;10178;48.034;9.800;2022-08-06T09:16:32;21.70;99.90
20035;DHT22;10178;48.034;9.800;2022-08-06T09:18:59;21.70;99.90
20035;DHT22;10178;48.034;9.800;2022-08-06T09:21:24;21.80;99.90
20035;DHT22;10178;48.034;9.800;2022-08-06T09:23:50;21.80;99.90
20035;DHT22;10178;48.034;9.800;2022-08-06T09:26:16;21.80;99.90
20035;DHT22;10178;48.034;9.800;2022-08-06T09:28:43;21.70;99.90
20035;DHT22;10178;48.034;9.800;2022-08-06T09:31:12;21.60;99.90
20035;DHT22;10178;48.034;9.800;2022-08-06T09:33:52;21.50;99.90
20035;DHT22;10178;48.034;9.800;2022-08-06T09:36:18;21.40;99.90
20035;DHT22;10178;48.034;9.800;2022-08-06T09:38:52;21.60;99.90
20035;DHT22;10178;48.034;9.800;2022-08-06T09:41:21;21.60;99.90
20035;DHT22;10178;48.034;9.800;2022-08-06T09:43:49;21.70;99.90
20035;DHT22;10178;48.034;9.800;2022-08-06T09:46:16;21.80;99.90
20035;DHT22;10178;48.034;9.800;2022-08-06T09:49:09;21.90;99.90
20035;DHT22;10178;48.034;9.800;2022-08-06T09:54:57;21.50;99.90
20035;DHT22;10178;48.034;9.800;2022-08-06T09:57:25;21.60;99.90
20035;DHT22;10178;48.034;9.800;2022-08-06T09:59:51;21.80;99.90
20035;DHT22;10178;48.034;9.800;2022-08-06T10:02:20;21.50;99.90
20035;DHT22;10178;48.034;9.800;2022-08-06T10:04:48;21.50;99.90
20035;DHT22;10178;48.034;9.800;2022-08-06T10:07:13;21.10;99.90
20035;DHT22;10178;48.034;9.800;2022-08-06T10:09:54;20.70;99.90
20035;DHT22;10178;48.034;9.800;2022-08-06T10:12:23;20.30;99.90
20035;DHT22;10178;48.034;9.800;2022-08-06T10:14:49;20.60;99.90
20035;DHT22;10178;48.034;9.800;2022-08-06T10:17:19;20.80;99.90
20035;DHT22;10178;48.034;9.800;2022-08-06T10:19:48;20.70;99.90
20035;DHT22;10178;48.034;9.800;2022-08-06T10:22:28;21.00;99.90
20035;DHT22;10178;48.034;9.800;2022-08-06T10:31:44;21.80;99.90
20035;DHT22;10178;48.034;9.800;2022-08-06T11:11:44;20.70;99.90
20035;DHT22;10178;48.034;9.800;2022-08-06T11:14:13;21.20;99.90
20035;DHT22;10178;48.034;9.800;2022-08-06T11:16:39;21.20;99.90
20035;DHT22;10178;48.034;9.800;2022-08-06T11:21:46;21.40;99.90
20035;DHT22;10178;48.034;9.800;2022-08-06T11:24:13;21.50;99.90
20035;DHT22;10178;48.034;9.800;2022-08-06T11:26:41;21.70;99.90
20035;DHT22;10178;48.034;9.800;2022-08-06T11:29:09;21.90;99.90
20035;DHT22;10178;48.034;9.800;2022-08-06T11:31:43;22.00;99.90
20035;DHT22;10178;48.034;9.800;2022-08-06T11:34:12;22.00;99.90
20035;DHT22;10178;48.034;9.800;2022-08-06T11:36:55;22.00;99.90
20035;DHT22;10178;48.034;9.800;2022-08-06T11:39:24;22.00;99.90
20035;DHT22;10178;48.034;9.800;2022-08-06T11:42:03;21.50;99.90
20035;DHT22;10178;48.034;9.800;2022-08-06T11:44:31;21.00;99.90
20035;DHT22;10178;48.034;9.800;2022-08-06T11:49:43;21.30;99.90
20035;DHT22;10178;48.034;9.800;2022-08-06T11:52:09;21.60;99.90
20035;DHT22;10178;48.034;9.800;2022-08-06T11:55:04;21.80;99.90
20035;DHT22;10178;48.034;9.800;2022-08-06T11:57:33;22.00;99.90
20035;DHT22;10178;48.034;9.800;2022-08-06T12:07:43;21.20;99.90
20035;DHT22;10178;48.034;9.800;2022-08-06T12:10:14;21.60;99.90
20035;DHT22;10178;48.034;9.800;2022-08-06T12:12:44;21.90;99.90
20035;DHT22;10178;48.034;9.800;2022-08-06T12:20:08;22.00;99.90
20035;DHT22;10178;48.034;9.800;2022-08-06T12:22:35;22.10;99.90
20035;DHT22;10178;48.034;9.800;2022-08-06T12:25:06;21.30;99.90
20035;DHT22;10178;48.034;9.800;2022-08-06T12:27:36;21.10;99.90
20035;DHT22;10178;48.034;9.800;2022-08-06T12:30:04;21.30;99.90
20035;DHT22;10178;48.034;9.800;2022-08-06T12:35:56;21.90;99.90
20035;DHT22;10178;48.034;9.800;2022-08-06T12:38:26;22.10;99.90
20035;DHT22;10178;48.034;9.800;2022-08-06T12:40:59;22.20;99.90
20035;DHT22;10178;48.034;9.800;2022-08-06T12:43:27;22.30;99.90
20035;DHT22;10178;48.034;9.800;2022-08-06T12:46:05;22.30;99.90
20035;DHT22;10178;48.034;9.800;2022-08-06T12:48:33;21.30;99.90
20035;DHT22;10178;48.034;9.800;2022-08-06T12:51:10;20.90;99.90
20035;DHT22;10178;48.034;9.800;2022-08-06T12:53:39;20.70;99.90
20035;DHT22;10178;48.034;9.800;2022-08-06T12:56:05;21.20;99.90
20035;DHT22;10178;48.034;9.800;2022-08-06T13:00:59;21.30;99.90
20035;DHT22;10178;48.034;9.800;2022-08-06T13:03:26;21.40;99.90
20035;DHT22;10178;48.034;9.800;2022-08-06T13:05:54;21.40;99.90
20035;DHT22;10178;48.034;9.800;2022-08-06T13:08:21;21.70;99.90
20035;DHT22;10178;48.034;9.800;2022-08-06T13:10:51;21.60;99.90
20035;DHT22;10178;48.034;9.800;2022-08-06T13:13:18;21.90;99.90
20035;DHT22;10178;48.034;9.800;2022-08-06T13:16:08;21.90;99.90
20035;DHT22;10178;48.034;9.800;2022-08-06T13:18:34;22.00;99.90
20035;DHT22;10178;48.034;9.800;2022-08-06T13:21:02;21.90;99.90
20035;DHT22;10178;48.034;9.800;2022-08-06T13:23:31;22.20;99.90
20035;DHT22;10178;48.034;9.800;2022-08-06T13:25:58;22.00;99.90
20035;DHT22;10178;48.034;9.800;2022-08-06T13:28:28;21.40;99.90
20035;DHT22;10178;48.034;9.800;2022-08-06T13:30:54;21.20;99.90
20035;DHT22;10178;48.034;9.800;2022-08-06T13:33:29;20.90;99.90
20035;DHT22;10178;48.034;9.800;2022-08-06T13:36:14;21.00;99.90
20035;DHT22;10178;48.034;9.800;2022-08-06T13:48:35;21.80;99.90
20035;DHT22;10178;48.034;9.800;2022-08-06T13:51:03;21.90;99.90
20035;DHT22;10178;48.034;9.800;2022-08-06T13:53:29;22.20;99.90
20035;DHT22;10178;48.034;9.800;2022-08-06T13:55:54;22.30;99.90
20035;DHT22;10178;48.034;9.800;2022-08-06T14:01:51;22.50;99.90
20035;DHT22;10178;48.034;9.800;2022-08-06T14:04:18;22.40;99.90
20035;DHT22;10178;48.034;9.800;2022-08-06T14:06:49;21.60;99.90
20035;DHT22;10178;48.034;9.800;2022-08-06T14:09:16;21.50;99.90
20035;DHT22;10178;48.034;9.800;2022-08-06T14:11:42;21.50;99.90
20035;DHT22;10178;48.034;9.800;2022-08-06T14:14:08;21.50;99.90
20035;DHT22;10178;48.034;9.800;2022-08-06T14:16:34;21.70;99.90
20035;DHT22;10178;48.034;9.800;2022-08-06T14:19:00;21.90;99.90
20035;DHT22;10178;48.034;9.800;2022-08-06T14:21:25;22.00;99.90
20035;DHT22;10178;48.034;9.800;2022-08-06T14:23:51;22.30;99.90
20035;DHT22;10178;48.034;9.800;2022-08-06T14:26:17;22.10;99.90
20035;DHT22;10178;48.034;9.800;2022-08-06T14:28:42;21.90;99.90
20035;DHT22;10178;48.034;9.800;2022-08-06T14:31:08;21.50;99.90
20035;DHT22;10178;48.034;9.800;2022-08-06T14:33:34;21.80;99.90
20035;DHT22;10178;48.034;9.800;2022-08-06T14:35:59;22.10;99.90
20035;DHT22;10178;48.034;9.800;2022-08-06T14:38:25;22.20;99.90
20035;DHT22;10178;48.034;9.800;2022-08-06T14:40:51;22.40;99.90
20035;DHT22;10178;48.034;9.800;2022-08-06T14:43:35;22.60;99.90
20035;DHT22;10178;48.034;9.800;2022-08-06T14:46:19;22.70;99.90
20035;DHT22;10178;48.034;9.800;2022-08-06T14:48:44;22.70;99.90
20035;DHT22;10178;48.034;9.800;2022-08-06T14:51:10;22.80;99.90
20035;DHT22;10178;48.034;9.800;2022-08-06T14:53:39;22.90;99.90
20035;DHT22;10178;48.034;9.800;2022-08-06T14:56:05;22.90;99.90
20035;DHT22;10178;48.034;9.800;2022-08-06T14:58:30;22.90;99.90
20035;DHT22;10178;48.034;9.800;2022-08-06T15:01:01;22.20;99.90
20035;DHT22;10178;48.034;9.800;2022-08-06T15:03:26;22.30;99.90
20035;DHT22;10178;48.034;9.800;2022-08-06T15:05:54;22.50;99.90
20035;DHT22;10178;48.034;9.800;2022-08-06T15:08:19;22.60;99.90
20035;DHT22;10178;48.034;9.800;2022-08-06T15:10:45;22.80;99.90
20035;DHT22;10178;48.034;9.800;2022-08-06T15:13:11;22.70;99.90
20035;DHT22;10178;48.034;9.800;2022-08-06T15:15:36;22.60;99.90
20035;DHT22;10178;48.034;9.800;2022-08-06T15:18:03;22.70;99.90
20035;DHT22;10178;48.034;9.800;2022-08-06T15:20:28;22.60;99.90
20035;DHT22;10178;48.034;9.800;2022-08-06T15:22:54;22.70;99.90
20035;DHT22;10178;48.034;9.800;2022-08-06T15:25:20;22.60;99.90
20035;DHT22;10178;48.034;9.800;2022-08-06T15:27:45;22.60;99.90
20035;DHT22;10178;48.034;9.800;2022-08-06T15:30:12;22.80;99.90
20035;DHT22;10178;48.034;9.800;2022-08-06T15:32:38;22.90;99.90
20035;DHT22;10178;48.034;9.800;2022-08-06T15:35:04;23.00;99.90
20035;DHT22;10178;48.034;9.800;2022-08-06T15:37:30;23.00;99.90
20035;DHT22;10178;48.034;9.800;2022-08-06T15:39:56;23.00;99.90
20035;DHT22;10178;48.034;9.800;2022-08-06T15:42:23;23.00;99.90
20035;DHT22;10178;48.034;9.800;2022-08-06T15:44:50;22.90;99.90
20035;DHT22;10178;48.034;9.800;2022-08-06T15:47:16;23.00;99.90
20035;DHT22;10178;48.034;9.800;2022-08-06T15:49:41;22.70;99.90
20035;DHT22;10178;48.034;9.800;2022-08-06T15:52:07;22.80;99.90
20035;DHT22;10178;48.034;9.800;2022-08-06T15:54:34;23.00;99.90
20035;DHT22;10178;48.034;9.800;2022-08-06T15:57:00;22.10;99.90
20035;DHT22;10178;48.034;9.800;2022-08-06T15:59:26;21.60;99.90
20035;DHT22;10178;48.034;9.800;2022-08-06T16:01:51;22.00;99.90
20035;DHT22;10178;48.034;9.800;2022-08-06T16:04:17;22.80;99.90
20035;DHT22;10178;48.034;9.800;2022-08-06T16:06:43;23.20;99.90
20035;DHT22;10178;48.034;9.800;2022-08-06T16:09:08;23.50;99.90
20035;DHT22;10178;48.034;9.800;2022-08-06T16:11:34;23.90;99.90
20035;DHT22;10178;48.034;9.800;2022-08-06T16:14:00;24.30;99.90
20035;DHT22;10178;48.034;9.800;2022-08-06T16:16:25;24.60;99.90
20035;DHT22;10178;48.034;9.800;2022-08-06T16:18:51;24.70;99.90
20035;DHT22;10178;48.034;9.800;2022-08-06T16:21:17;24.90;99.90
20035;DHT22;10178;48.034;9.800;2022-08-06T16:23:42;25.00;99.90
20035;DHT22;10178;48.034;9.800;2022-08-06T16:26:08;25.10;99.90
20035;DHT22;10178;48.034;9.800;2022-08-06T16:28:34;25.20;99.90
20035;DHT22;10178;48.034;9.800;2022-08-06T16:31:00;25.20;99.90
20035;DHT22;10178;48.034;9.800;2022-08-06T16:33:25;25.20;99.90
20035;DHT22;10178;48.034;9.800;2022-08-06T16:35:51;24.90;99.90
20035;DHT22;10178;48.034;9.800;2022-08-06T16:38:17;24.40;99.90
20035;DHT22;10178;48.034;9.800;2022-08-06T16:40:43;24.10;99.90
20035;DHT22;10178;48.034;9.800;2022-08-06T16:43:08;24.00;99.90
20035;DHT22;10178;48.034;9.800;2022-08-06T16:45:34;23.80;99.90
20035;DHT22;10178;48.034;9.800;2022-08-06T16:48:00;24.20;99.90
20035;DHT22;10178;48.034;9.800;2022-08-06T16:50:26;24.10;99.90
20035;DHT22;10178;48.034;9.800;2022-08-06T16:52:51;23.10;99.90
20035;DHT22;10178;48.034;9.800;2022-08-06T16:55:18;22.90;99.90
20035;DHT22;10178;48.034;9.800;2022-08-06T16:57:43;23.70;99.90
20035;DHT22;10178;48.034;9.800;2022-08-06T17:00:11;24.40;99.90
20035;DHT22;10178;48.034;9.800;2022-08-06T17:02:42;24.90;99.90
20035;DHT22;10178;48.034;9.800;2022-08-06T17:05:14;24.70;99.90
20035;DHT22;10178;48.034;9.800;2022-08-06T17:07:41;23.50;99.90
20035;DHT22;10178;48.034;9.800;2022-08-06T17:10:08;23.40;99.90
20035;DHT22;10178;48.034;9.800;2022-08-06T17:12:35;24.00;99.90
20035;DHT22;10178;48.034;9.800;2022-08-06T17:15:01;23.20;99.90
20035;DHT22;10178;48.034;9.800;2022-08-06T17:17:27;22.00;99.90
20035;DHT22;10178;48.034;9.800;2022-08-06T17:19:52;21.80;99.90
20035;DHT22;10178;48.034;9.800;2022-08-06T17:22:18;22.40;99.90
20035;DHT22;10178;48.034;9.800;2022-08-06T17:24:44;22.00;99.90
20035;DHT22;10178;48.034;9.800;2022-08-06T17:27:13;21.90;99.90
20035;DHT22;10178;48.034;9.800;2022-08-06T17:29:44;22.00;99.90
20035;DHT22;10178;48.034;9.800;2022-08-06T17:32:09;21.50;99.90